createdAt,value
2023-02-13T00:04:05.003Z,5.78
2023-02-13T00:09:11.237Z,6.82
2023-02-13T00:14:14.680Z,10.23
2023-02-13T00:19:17.931Z,11.21
2023-02-13T00:24:21.200Z,9.66
2023-02-13T00:29:24.459Z,8.63
2023-02-13T00:34:28.849Z,7.98
2023-02-13T00:39:32.045Z,7.50
2023-02-13T00:44:35.431Z,7.13
2023-02-13T00:49:38.796Z,6.85
2023-02-13T00:54:42.017Z,6.57
2023-02-13T00:59:45.196Z,6.33
2023-02-13T01:04:48.787Z,6.18
2023-02-13T01:09:52.231Z,6.03
2023-02-13T01:14:56.372Z,5.92
2023-02-13T01:20:00.421Z,5.83
2023-02-13T01:25:04.415Z,5.77
2023-02-13T01:30:13.699Z,5.69
2023-02-13T01:35:17.087Z,5.65
2023-02-13T01:40:20.188Z,5.62
2023-02-13T01:45:23.300Z,5.61
2023-02-13T01:50:43.603Z,5.61
2023-02-13T01:55:55.603Z,6.70
2023-02-13T02:00:59.666Z,10.15
2023-02-13T02:06:07.467Z,11.06
2023-02-13T02:11:46.647Z,9.45
2023-02-13T02:16:51.023Z,8.28
2023-02-13T02:22:14.929Z,7.59
2023-02-13T02:27:27.170Z,7.05
2023-02-13T02:33:00.936Z,6.62
2023-02-13T02:38:26.442Z,6.36
2023-02-13T02:43:42.317Z,6.14
2023-02-13T02:49:21.952Z,6.01
2023-02-13T02:54:55.551Z,5.91
2023-02-13T03:00:18.813Z,5.90
2023-02-13T03:05:49.440Z,7.14
2023-02-13T03:11:11.540Z,10.73
2023-02-13T03:16:37.578Z,11.23
2023-02-13T03:22:08.480Z,9.63
2023-02-13T03:27:54.625Z,8.72
2023-02-13T03:33:27.973Z,8.03
2023-02-13T03:39:09.757Z,7.53
2023-02-13T03:44:23.860Z,7.12
2023-02-13T03:49:50.792Z,6.83
2023-02-13T03:55:22.725Z,6.61
2023-02-13T04:00:29.492Z,6.47
2023-02-13T04:05:40.410Z,6.38
2023-02-13T04:10:59.703Z,7.40
2023-02-13T04:16:37.800Z,10.65
2023-02-13T04:21:41.204Z,11.50
2023-02-13T04:26:46.027Z,9.99
2023-02-13T04:31:49.453Z,9.02
2023-02-13T04:36:53.604Z,8.37
2023-02-13T04:41:57.283Z,7.88
2023-02-13T04:47:00.451Z,7.52
2023-02-13T04:52:03.972Z,7.21
2023-02-13T04:57:07.373Z,6.99
2023-02-13T05:02:10.816Z,7.92
2023-02-13T05:07:14.023Z,10.99
2023-02-13T05:12:17.174Z,11.83
2023-02-13T05:17:20.443Z,10.22
2023-02-13T05:22:42.305Z,9.16
2023-02-13T05:27:45.962Z,8.41
2023-02-13T05:32:52.298Z,7.91
2023-02-13T05:37:55.550Z,7.55
2023-02-13T05:42:59.115Z,7.30
2023-02-13T05:48:02.479Z,8.19
2023-02-13T05:53:05.846Z,11.14
2023-02-13T05:58:09.737Z,11.88
2023-02-13T06:03:13.158Z,10.30
2023-02-13T06:08:17.602Z,9.26
2023-02-13T06:13:21.029Z,8.62
2023-02-13T06:18:25.129Z,8.16
2023-02-13T06:23:29.112Z,7.79
2023-02-13T06:28:33.501Z,7.48
2023-02-13T06:33:37.013Z,8.32
2023-02-13T06:38:41.001Z,11.19
2023-02-13T06:43:44.551Z,12.18
2023-02-13T06:48:47.999Z,10.66
2023-02-13T06:53:51.515Z,9.56
2023-02-13T06:58:54.920Z,8.84
2023-02-13T07:03:58.069Z,8.31
2023-02-13T07:09:02.548Z,7.93
2023-02-13T07:14:09.923Z,7.62
2023-02-13T07:19:13.093Z,8.42
2023-02-13T07:24:16.492Z,11.28
2023-02-13T07:29:19.793Z,11.95
2023-02-13T07:34:22.980Z,10.42
2023-02-13T07:39:26.179Z,9.42
2023-02-13T07:44:30.655Z,8.78
2023-02-13T07:49:35.228Z,8.32
2023-02-13T07:54:47.662Z,7.95
2023-02-13T07:59:51.776Z,8.54
2023-02-13T08:04:55.359Z,11.46
2023-02-13T08:10:17.737Z,12.28
2023-02-13T08:15:21.046Z,10.50
2023-02-13T08:20:24.568Z,9.35
2023-02-13T08:25:27.848Z,8.58
2023-02-13T08:30:31.502Z,9.08
2023-02-13T08:35:35.320Z,11.92
2023-02-13T08:40:39.849Z,12.29
2023-02-13T08:45:43.353Z,10.63
2023-02-13T08:50:47.227Z,9.58
2023-02-13T08:55:54.960Z,8.83
2023-02-13T09:00:58.400Z,8.33
2023-02-13T09:06:02.748Z,8.04
2023-02-13T09:11:09.341Z,10.08
2023-02-13T09:16:12.957Z,12.21
2023-02-13T09:21:16.979Z,10.90
2023-02-13T09:26:20.892Z,9.77
2023-02-13T09:31:24.590Z,9.11
2023-02-13T09:36:27.969Z,8.71
2023-02-13T09:41:37.850Z,8.42
2023-02-13T09:46:44.303Z,9.46
2023-02-13T09:51:54.465Z,12.60
2023-02-13T09:57:17.372Z,12.43
2023-02-13T10:02:41.698Z,10.98
2023-02-13T10:08:00.206Z,10.18
2023-02-13T10:13:15.776Z,9.67
2023-02-13T10:18:32.384Z,9.30
2023-02-13T10:23:48.414Z,10.02
2023-02-13T10:29:23.891Z,12.95
2023-02-13T10:34:32.095Z,12.60
2023-02-13T10:39:35.775Z,11.27
2023-02-13T10:44:41.971Z,10.56
2023-02-13T10:50:13.589Z,10.01
2023-02-13T10:55:42.478Z,9.58
2023-02-13T11:01:04.580Z,9.27
2023-02-13T11:06:14.733Z,9.05
2023-02-13T11:11:39.214Z,10.22
2023-02-13T11:16:50.576Z,12.85
2023-02-13T11:21:57.897Z,11.71
2023-02-13T11:27:09.498Z,10.63
2023-02-13T11:32:15.772Z,10.09
2023-02-13T11:37:21.308Z,9.73
2023-02-13T11:42:30.444Z,9.48
2023-02-13T11:47:42.647Z,9.29
2023-02-13T11:52:57.114Z,10.27
2023-02-13T11:58:03.738Z,13.27
2023-02-13T12:03:22.559Z,13.00
2023-02-13T12:08:25.914Z,11.65
2023-02-13T12:13:39.333Z,10.95
2023-02-13T12:18:46.681Z,10.45
2023-02-13T12:24:19.841Z,10.03
2023-02-13T12:29:33.104Z,9.69
2023-02-13T12:35:07.662Z,9.40
2023-02-13T12:40:24.825Z,10.44
2023-02-13T12:45:28.132Z,13.40
2023-02-13T12:50:42.115Z,13.03
2023-02-13T12:56:27.236Z,11.57
2023-02-13T13:01:56.902Z,10.72
2023-02-13T13:07:26.505Z,10.18
2023-02-13T13:12:54.456Z,9.73
2023-02-13T13:18:06.549Z,9.31
2023-02-13T13:23:25.034Z,9.99
2023-02-13T13:28:46.364Z,13.08
2023-02-13T13:33:50.041Z,13.59
2023-02-13T13:39:24.950Z,12.02
2023-02-13T13:44:43.727Z,11.07
2023-02-13T13:49:58.921Z,10.48
2023-02-13T13:55:05.866Z,9.98
2023-02-13T14:00:10.527Z,9.58
2023-02-13T14:05:56.065Z,10.30
2023-02-13T14:11:03.221Z,13.55
2023-02-13T14:16:11.740Z,13.32
2023-02-13T14:21:23.077Z,11.76
2023-02-13T14:26:33.511Z,10.84
2023-02-13T14:31:40.705Z,10.23
2023-02-13T14:36:48.227Z,9.78
2023-02-13T14:41:55.987Z,9.45
2023-02-13T14:47:11.636Z,10.38
2023-02-13T14:52:35.623Z,13.38
2023-02-13T14:57:53.252Z,13.73
2023-02-13T15:03:06.385Z,12.01
2023-02-13T15:08:18.110Z,11.02
2023-02-13T15:13:34.688Z,10.35
2023-02-13T15:18:46.391Z,9.81
2023-02-13T15:23:55.937Z,10.55
2023-02-13T15:29:07.404Z,13.44
2023-02-13T15:34:34.557Z,13.12
2023-02-13T15:39:39.614Z,11.51
2023-02-13T15:44:48.988Z,10.65
2023-02-13T15:49:52.756Z,9.97
2023-02-13T15:54:58.115Z,9.49
2023-02-13T16:00:03.217Z,9.18
2023-02-13T16:05:26.489Z,9.99
2023-02-13T16:10:42.464Z,12.81
2023-02-13T16:15:48.107Z,13.01
2023-02-13T16:20:57.668Z,11.45
2023-02-13T16:26:08.638Z,10.43
2023-02-13T16:31:17.687Z,9.79
2023-02-13T16:36:31.372Z,9.34
2023-02-13T16:41:35.478Z,8.99
2023-02-13T16:46:43.021Z,8.69
2023-02-13T16:52:21.715Z,9.51
2023-02-13T16:57:32.022Z,12.71
2023-02-13T17:02:41.104Z,13.05
2023-02-13T17:07:49.369Z,11.40
2023-02-13T17:12:56.161Z,10.36
2023-02-13T17:18:00.517Z,9.64
2023-02-13T17:23:08.493Z,9.16
2023-02-13T17:28:19.154Z,8.80
2023-02-13T17:33:26.811Z,8.53
2023-02-13T17:38:31.940Z,8.31
2023-02-13T17:43:37.228Z,9.23
2023-02-13T17:48:44.212Z,12.24
2023-02-13T17:53:48.399Z,13.05
2023-02-13T17:58:55.112Z,11.49
2023-02-13T18:03:59.156Z,10.49
2023-02-13T18:09:04.433Z,9.82
2023-02-13T18:14:08.788Z,9.29
2023-02-13T18:19:14.548Z,8.86
2023-02-13T18:24:18.820Z,8.55
2023-02-13T18:29:23.611Z,8.29
2023-02-13T18:34:29.909Z,9.23
2023-02-13T18:39:36.302Z,12.37
2023-02-13T18:44:41.745Z,12.66
2023-02-13T18:49:47.049Z,11.11
2023-02-13T18:54:51.873Z,10.22
2023-02-13T18:59:55.970Z,9.60
2023-02-13T19:05:00.019Z,9.15
2023-02-13T19:10:05.977Z,8.81
2023-02-13T19:15:09.984Z,8.51
2023-02-13T19:20:16.655Z,8.30
2023-02-13T19:25:22.550Z,8.14
2023-02-13T19:30:26.917Z,8.02
2023-02-13T19:35:31.306Z,7.92
2023-02-13T19:40:35.882Z,8.94
2023-02-13T19:45:40.544Z,12.12
2023-02-13T19:50:46.094Z,12.73
2023-02-13T19:55:49.871Z,11.16
2023-02-13T20:00:55.740Z,10.15
2023-02-13T20:06:03.780Z,9.50
2023-02-13T20:11:10.320Z,9.01
2023-02-13T20:16:17.476Z,8.60
2023-02-13T20:21:21.741Z,8.30
2023-02-13T20:26:27.708Z,8.08
2023-02-13T20:31:34.782Z,7.95
2023-02-13T20:36:38.946Z,7.90
2023-02-13T20:41:48.644Z,7.84
2023-02-13T20:46:52.476Z,9.01
2023-02-13T20:51:56.253Z,12.13
2023-02-13T20:56:59.695Z,11.76
2023-02-13T21:02:03.275Z,10.40
2023-02-13T21:07:09.637Z,9.60
2023-02-13T21:12:13.547Z,9.06
2023-02-13T21:17:17.036Z,8.70
2023-02-13T21:22:21.282Z,8.39
2023-02-13T21:27:24.948Z,8.14
2023-02-13T21:32:28.707Z,7.94
2023-02-13T21:37:32.839Z,7.79
2023-02-13T21:42:36.693Z,7.65
2023-02-13T21:47:40.313Z,7.54
2023-02-13T21:52:43.807Z,7.46
2023-02-13T21:57:47.121Z,8.46
2023-02-13T22:02:50.510Z,11.76
2023-02-13T22:08:12.958Z,12.70
2023-02-13T22:13:16.551Z,11.11
2023-02-13T22:18:19.978Z,10.23
2023-02-13T22:23:23.255Z,9.65
2023-02-13T22:28:27.982Z,9.20
2023-02-13T22:33:31.242Z,8.78
2023-02-13T22:38:37.152Z,8.47
2023-02-13T22:43:41.304Z,8.25
2023-02-13T22:48:48.187Z,8.05
2023-02-13T22:53:56.396Z,7.89
2023-02-13T22:58:59.706Z,7.73
2023-02-13T23:04:03.297Z,7.65
2023-02-13T23:09:08.369Z,7.59
2023-02-13T23:14:13.231Z,8.70
2023-02-13T23:19:16.823Z,11.93
2023-02-13T23:24:20.105Z,11.97
2023-02-13T23:29:24.258Z,10.55
2023-02-13T23:34:27.935Z,9.78
2023-02-13T23:39:31.430Z,9.24
2023-02-13T23:44:34.814Z,8.81
2023-02-13T23:49:38.341Z,8.45
2023-02-13T23:54:42.001Z,8.14
2023-02-13T23:59:45.498Z,7.93
